Armington, IL (61721)

10:45 AM CDT on April 26, 2017 (GMT -0500)
BFE Armington | | Change Station

Elev 627 ft 40.34 °N, 89.31 °W | Updated 17 seconds ago

Overcast
Overcast
67.3 °F
Feels Like 67.3 °F
N
3.7
Wind Variable Wind from West

Today
High -- | Low -- °F
--% Chance of Precip.
Yesterday
High -- | Low -- °F
Precip. -- in
Pressure 29.53 in
Visibility 10.0 miles
Clouds Mostly Cloudy 2500 ft
Overcast 3600 ft
Dew Point 61 °F
Humidity 81%
Rainfall 0.03 in
Snow Depth Not available.
6:02 AM 7:47 PM
New Moon, 0% visible
METAR KAAA 261535Z AUTO 24004KT 10SM BKN025 OVC036 20/15 A2953 RMK AO2 T01990153
Pressure 29.53 in
Visibility 10.0 miles
Clouds Mostly Cloudy 2500 ft
Overcast 3600 ft
Dew Point 61 °F
Humidity 81%
Rainfall 0.03 in
Snow Depth Not available.
6:02 AM 7:47 PM
New Moon, 0% visible
METAR KAAA 261535Z AUTO 24004KT 10SM BKN025 OVC036 20/15 A2953 RMK AO2 T01990153

Get Severe Weather Alerts

Thanks for signing up!

Be on the lookout for a verification email in your inbox.

You'll start receiving the daily forecast at 8 AM.

×

10-Day Weather Forecast

Almanac

Astronomy

Apr. 26, 2017 Rise Set
Actual Time
Civil Twilight
Nautical Twilight
Astronomical Twilight
Moon
Length of Visible Light
Length of Day
Tomorrow will be .
, % of the Moon is Illuminated

Today's Extremes

State Highs State Lows

Community

WunderPhotos

WunderBlog® & News

Nearby

Air Quality

  Air Quality AQ Index Pollutant
Not available.

Snow Depth

Station Depth Elevation

Earthquake Activity

City Distance Mag. Time & Date
Minimum magnitude displayed is 2.5.

Coastal Water Temperatures

Place Temperature

Stations

Nearby Weather Stations

Station Location Temp. Windchill Dew Point Humidity Wind Precip. Elev Updated Type
                   

Watches & Warnings

There are currently no watches in effect.